Main page
METAR-TAF:

METAR-TAF

Airports :

Los Cabos International Airport

San José Del Cabo, Mexico

latitude: 23-09N, longitude: 109-42W, elevation: 109 m

Current weather observation

The report was made 28 minutes ago, at 13:47 UTC
Wind 5 kt from the West
Temperature 21°C
Humidity 46%
Pressure 1018 hPa
Visibility: 19.3 km
Broken clouds at a height of 15000 ft

METAR: MMSD 221347Z 28005KT 12SM BKN150 21/09 A3005 RMK 8/030

Time: 07:15 (14:15 UTC)

Forecast

The report was made 9 hours and 52 minutes ago, at 04:23 UTC
Forecast valid from 22 at 06 UTC to 23 at 06 UTC
Wind 5 kt from the West/Northwest
Visibility: 10 km
Scattered clouds at a height of 25000 ft
From 22 at 1800 UTC
Wind 14 kt from the West/Northwest
Visibility: 10 km
Scattered clouds at a height of 14000 ft
Broken clouds at a height of 25000 ft
From 23 at 0500 UTC
Wind 5 kt from the West/Northwest
Visibility: 10 km
Scattered clouds at a height of 25000 ft

TAF: MMSD 220423Z 2206/2306 29005KT P6SM SCT250 FM221800 30014KT P6SM SCT140 BKN250 FM230500 30005KT P6SM SCT250

Weather observations and forecasts of more than 4000 airports (METAR and TAF reports).

The available stations are represented by yellow and red dots on the map.

Hover mouse over dot to see the name of the station.

Then click to see weather observations and forecasts.

To change the map : click on the green buttons with a black cross to zoom in, on the green button with a dash to zoom out, or on the green arrows for adjacent maps.


METAR-TAF: